createdAt,value
2023-01-17T00:02:11.288Z,16.05
2023-01-17T00:05:03.049Z,15.80
2023-01-17T00:08:10.116Z,17.45
2023-01-17T00:10:46.326Z,19.25
2023-01-17T00:13:33.268Z,20.25
2023-01-17T00:16:06.606Z,17.10
2023-01-17T00:19:13.278Z,18.65
2023-01-17T00:22:05.264Z,18.00
2023-01-17T00:25:10.288Z,19.67
2023-01-17T00:27:50.290Z,19.17
2023-01-17T00:30:37.281Z,21.40
2023-01-17T00:33:17.281Z,17.65
2023-01-17T00:36:13.260Z,19.33
2023-01-17T00:39:00.285Z,18.77
2023-01-17T00:41:44.113Z,16.75
2023-01-17T00:44:50.290Z,18.85
2023-01-17T00:47:42.050Z,18.52
2023-01-17T00:50:47.363Z,18.27
2023-01-17T00:53:39.155Z,16.05
2023-01-17T00:56:45.261Z,19.23
2023-01-17T00:59:36.928Z,18.10
2023-01-17T01:02:42.301Z,18.90
2023-01-17T01:05:35.021Z,18.90
2023-01-17T01:08:47.266Z,17.85
2023-01-17T01:11:50.296Z,18.13
2023-01-17T01:15:02.293Z,18.05
2023-01-17T01:18:08.292Z,19.10
2023-01-17T01:21:00.132Z,19.02
2023-01-17T01:24:05.314Z,19.65
2023-01-17T01:27:00.390Z,20.65
2023-01-17T01:30:05.311Z,19.98
2023-01-17T01:33:01.953Z,21.10
2023-01-17T01:35:48.297Z,21.08
2023-01-17T01:38:29.320Z,20.08
2023-01-17T01:41:16.306Z,19.65
2023-01-17T01:44:04.299Z,19.73
2023-01-17T01:46:58.300Z,19.83
2023-01-17T01:49:53.401Z,20.73
2023-01-17T01:52:43.317Z,20.75
2023-01-17T01:55:33.838Z,19.95
2023-01-17T01:58:30.330Z,20.05
2023-01-17T02:01:10.468Z,20.42
2023-01-17T02:04:06.380Z,19.92
2023-01-17T02:06:58.350Z,19.77
2023-01-17T02:09:38.357Z,20.65
2023-01-17T02:12:33.362Z,18.27
2023-01-17T02:15:22.334Z,18.75
2023-01-17T02:18:18.410Z,19.10
2023-01-17T02:21:23.317Z,19.05
2023-01-17T02:24:17.340Z,18.02
2023-01-17T02:27:27.345Z,18.27
2023-01-17T02:30:38.292Z,18.00
2023-01-17T02:33:36.421Z,17.90
2023-01-17T02:36:17.337Z,18.77
2023-01-17T02:39:16.375Z,16.85
2023-01-17T02:41:54.476Z,19.75
2023-01-17T02:44:48.339Z,18.48
2023-01-17T02:47:35.544Z,19.23
2023-01-17T02:50:34.353Z,19.15
2023-01-17T02:53:54.294Z,19.45
2023-01-17T02:56:43.543Z,19.02
2023-01-17T02:59:47.336Z,19.30
2023-01-17T03:02:29.467Z,19.83
2023-01-17T03:05:58.292Z,17.75
2023-01-17T03:08:40.370Z,19.20
2023-01-17T03:11:34.348Z,19.08
2023-01-17T03:14:21.334Z,19.15
2023-01-17T03:16:54.410Z,19.48
2023-01-17T03:19:42.342Z,18.20
2023-01-17T03:22:22.310Z,17.42
2023-01-17T03:25:12.337Z,16.85
2023-01-17T03:27:48.702Z,18.52
2023-01-17T03:30:35.339Z,19.27
2023-01-17T03:33:08.489Z,18.13
2023-01-17T03:35:58.315Z,17.70
2023-01-17T03:38:39.304Z,18.35
2023-01-17T03:41:34.718Z,17.90
2023-01-17T03:44:22.782Z,19.58
2023-01-17T03:47:03.316Z,18.17
2023-01-17T03:49:57.315Z,18.23
2023-01-17T03:52:44.349Z,17.23
2023-01-17T03:55:17.467Z,17.40
2023-01-17T03:58:04.305Z,17.98
2023-01-17T04:00:44.330Z,19.35
2023-01-17T04:03:34.310Z,17.92
2023-01-17T04:06:14.342Z,17.70
2023-01-17T04:09:01.327Z,17.73
2023-01-17T04:11:41.306Z,17.23
2023-01-17T04:14:36.471Z,17.70
2023-01-17T04:17:26.318Z,16.85
2023-01-17T04:19:59.471Z,16.98
2023-01-17T04:22:46.323Z,16.75
2023-01-17T04:25:26.332Z,17.25
2023-01-17T04:28:20.334Z,15.65
2023-01-17T04:31:10.374Z,17.35
2023-01-17T04:33:50.295Z,16.50
2023-01-17T04:36:44.332Z,16.83
2023-01-17T04:39:31.397Z,17.27
2023-01-17T04:42:11.324Z,15.93
2023-01-17T04:44:58.359Z,16.15
2023-01-17T04:47:31.479Z,14.93
2023-01-17T04:50:18.344Z,14.32
2023-01-17T04:52:51.470Z,15.68
2023-01-17T04:55:38.332Z,20.20
2023-01-17T04:58:11.472Z,15.95
2023-01-17T05:00:58.391Z,15.10
2023-01-17T05:03:34.397Z,15.00
2023-01-17T05:06:21.383Z,15.27
2023-01-17T05:08:54.587Z,14.70
2023-01-17T05:11:41.383Z,15.60
2023-01-17T05:14:23.323Z,14.95
2023-01-17T05:17:10.339Z,15.10
2023-01-17T05:19:43.478Z,15.38
2023-01-17T05:22:30.336Z,16.38
2023-01-17T05:25:03.474Z,15.10
2023-01-17T05:27:50.353Z,16.60
2023-01-17T05:30:24.512Z,16.52
2023-01-17T05:33:11.381Z,15.07
2023-01-17T05:35:44.510Z,15.98
2023-01-17T05:38:31.382Z,17.15
2023-01-17T05:41:08.546Z,16.58
2023-01-17T05:43:55.382Z,14.70
2023-01-17T05:46:35.424Z,15.88
2023-01-17T05:49:29.389Z,15.18
2023-01-17T05:52:16.416Z,15.70
2023-01-17T05:54:57.382Z,15.00
2023-01-17T05:57:52.413Z,17.90
2023-01-17T06:00:46.441Z,16.95
2023-01-17T06:03:35.383Z,16.15
2023-01-17T06:06:08.536Z,15.50
2023-01-17T06:08:55.387Z,16.75
2023-01-17T06:11:28.508Z,16.75
2023-01-17T06:14:15.383Z,25.90
2023-01-17T06:16:48.494Z,18.80
2023-01-17T06:19:36.416Z,22.02
2023-01-17T06:22:18.429Z,21.38
2023-01-17T06:25:12.409Z,23.35
2023-01-17T06:28:01.385Z,26.00
2023-01-17T06:30:34.556Z,21.90
2023-01-17T06:33:21.387Z,19.85
2023-01-17T06:35:56.543Z,16.20
2023-01-17T06:38:43.388Z,17.60
2023-01-17T06:41:16.505Z,18.95
2023-01-17T06:44:03.396Z,17.63
2023-01-17T06:46:36.528Z,23.00
2023-01-17T06:49:30.415Z,31.67
2023-01-17T06:52:24.413Z,27.65
2023-01-17T06:55:11.403Z,27.42
2023-01-17T06:57:44.493Z,25.90
2023-01-17T07:00:32.413Z,20.05
2023-01-17T07:03:12.464Z,22.58
2023-01-17T07:06:06.419Z,21.92
2023-01-17T07:09:00.407Z,19.77
2023-01-17T07:11:47.392Z,19.42
2023-01-17T07:14:27.392Z,19.80
2023-01-17T07:17:14.409Z,18.35
2023-01-17T07:19:47.479Z,19.35
2023-01-17T07:22:34.417Z,21.95
2023-01-17T07:25:07.528Z,22.25
2023-01-17T07:27:57.129Z,18.73
2023-01-17T07:30:37.400Z,19.63
2023-01-17T07:33:31.420Z,18.17
2023-01-17T07:36:18.422Z,18.75
2023-01-17T07:38:53.520Z,18.23
2023-01-17T07:41:47.413Z,19.38
2023-01-17T07:44:20.536Z,18.95
2023-01-17T07:47:10.468Z,17.00
2023-01-17T07:49:43.578Z,19.75
2023-01-17T07:52:30.409Z,19.75
2023-01-17T07:55:03.585Z,19.27
2023-01-17T07:57:54.407Z,18.90
2023-01-17T08:00:35.424Z,18.25
2023-01-17T08:03:24.613Z,18.98
2023-01-17T08:06:02.631Z,16.85
2023-01-17T08:08:49.420Z,17.02
2023-01-17T08:11:22.526Z,22.27
2023-01-17T08:14:09.480Z,17.15
2023-01-17T08:16:49.428Z,17.92
2023-01-17T08:19:36.467Z,19.58
2023-01-17T08:22:16.488Z,21.75
2023-01-17T08:25:10.419Z,22.33
2023-01-17T08:27:58.480Z,20.30
2023-01-17T08:30:39.412Z,21.58
2023-01-17T08:33:26.468Z,21.65
2023-01-17T08:36:07.429Z,22.38
2023-01-17T08:39:07.141Z,18.42
2023-01-17T08:41:53.403Z,18.30
2023-01-17T08:44:33.421Z,15.55
2023-01-17T08:47:20.461Z,15.73
2023-01-17T08:49:53.618Z,15.85
2023-01-17T08:52:40.481Z,14.02
2023-01-17T08:55:14.566Z,15.23
2023-01-17T08:58:03.402Z,13.32
2023-01-17T09:00:37.324Z,14.35
2023-01-17T09:03:24.461Z,12.55
2023-01-17T09:06:04.486Z,13.27
2023-01-17T09:08:58.500Z,13.77
2023-01-17T09:11:45.494Z,14.70
2023-01-17T09:14:22.591Z,18.00
2023-01-17T09:17:09.417Z,18.77
2023-01-17T09:19:47.623Z,17.48
2023-01-17T09:22:34.457Z,17.83
2023-01-17T09:25:09.849Z,16.55
2023-01-17T09:27:56.468Z,13.57
2023-01-17T09:30:31.888Z,18.02
2023-01-17T09:33:18.468Z,15.98
2023-01-17T09:35:52.557Z,18.17
2023-01-17T09:38:39.498Z,16.38
2023-01-17T09:41:32.675Z,14.90
2023-01-17T09:44:31.488Z,19.83
2023-01-17T09:47:31.533Z,16.10
2023-01-17T09:50:53.272Z,17.38
2023-01-17T09:53:40.472Z,16.15
2023-01-17T09:56:39.487Z,16.45
2023-01-17T09:59:33.201Z,17.65
2023-01-17T10:02:58.604Z,16.45
2023-01-17T10:05:46.527Z,15.30
2023-01-17T10:09:14.469Z,19.98
2023-01-17T10:12:25.493Z,16.00
2023-01-17T10:15:40.472Z,19.85
2023-01-17T10:19:03.518Z,17.38
2023-01-17T10:21:56.470Z,18.85
2023-01-17T10:25:20.522Z,14.20
2023-01-17T10:28:11.491Z,13.18
2023-01-17T10:31:14.575Z,15.75
2023-01-17T10:34:02.484Z,15.88
2023-01-17T10:36:44.649Z,14.77
2023-01-17T10:39:32.594Z,13.50
2023-01-17T10:42:28.573Z,12.40
2023-01-17T10:45:34.522Z,14.50
2023-01-17T10:48:27.492Z,14.27
2023-01-17T10:51:18.520Z,14.77
2023-01-17T10:54:17.582Z,15.25
2023-01-17T10:57:05.503Z,13.80
2023-01-17T10:59:40.641Z,14.18
2023-01-17T11:02:47.531Z,12.88
2023-01-17T11:05:38.540Z,15.52
2023-01-17T11:08:27.505Z,13.75
2023-01-17T11:11:07.538Z,14.45
2023-01-17T11:13:56.541Z,10.90
2023-01-17T11:16:43.306Z,12.25
2023-01-17T11:19:35.513Z,12.18
2023-01-17T11:22:21.578Z,14.18
2023-01-17T11:25:17.497Z,12.85
2023-01-17T11:28:08.532Z,14.57
2023-01-17T11:30:41.648Z,15.40
2023-01-17T11:33:52.503Z,16.15
2023-01-17T11:36:30.225Z,16.58
2023-01-17T11:39:25.495Z,15.20
2023-01-17T11:42:05.576Z,15.20
2023-01-17T11:45:10.529Z,14.27
2023-01-17T11:48:19.537Z,13.57
2023-01-17T11:51:04.754Z,15.70
2023-01-17T11:53:57.638Z,13.38
2023-01-17T11:56:44.979Z,14.90
2023-01-17T11:59:43.544Z,15.93
2023-01-17T12:02:19.603Z,14.30
2023-01-17T12:05:43.501Z,14.50
2023-01-17T12:08:44.531Z,14.07
2023-01-17T12:12:29.499Z,15.82
2023-01-17T12:15:38.569Z,15.27
2023-01-17T12:18:57.576Z,15.45
2023-01-17T12:22:28.536Z,14.13
2023-01-17T12:25:33.594Z,15.43
2023-01-17T12:28:20.608Z,15.00
2023-01-17T12:31:26.626Z,14.82
2023-01-17T12:34:53.562Z,17.45
2023-01-17T12:38:05.700Z,13.52
2023-01-17T12:41:04.540Z,14.05
2023-01-17T12:43:53.550Z,13.10
2023-01-17T12:46:40.638Z,15.45
2023-01-17T12:49:27.547Z,12.95
2023-01-17T12:52:10.637Z,15.65
2023-01-17T12:55:03.540Z,15.20
2023-01-17T12:57:51.729Z,15.40
2023-01-17T13:00:44.631Z,16.35
2023-01-17T13:03:47.610Z,13.75
2023-01-17T13:06:57.581Z,13.13
2023-01-17T13:09:38.523Z,13.00
2023-01-17T13:12:37.866Z,14.48
2023-01-17T13:15:29.547Z,14.68
2023-01-17T13:18:32.543Z,12.82
2023-01-17T13:21:38.530Z,13.73
2023-01-17T13:24:33.543Z,13.70
2023-01-17T13:27:54.538Z,16.45
2023-01-17T13:30:54.762Z,16.52
2023-01-17T13:33:48.564Z,12.65
2023-01-17T13:36:51.540Z,12.40
2023-01-17T13:39:46.568Z,14.15
2023-01-17T13:42:55.548Z,14.75
2023-01-17T13:45:32.747Z,14.38
2023-01-17T13:48:19.597Z,14.85
2023-01-17T13:50:55.689Z,19.13
2023-01-17T13:53:45.655Z,18.30
2023-01-17T13:56:26.767Z,15.32
2023-01-17T13:59:35.608Z,16.63
2023-01-17T14:02:08.648Z,17.02
2023-01-17T14:05:13.592Z,15.32
2023-01-17T14:08:08.535Z,15.85
2023-01-17T14:10:59.547Z,16.17
2023-01-17T14:13:39.651Z,18.65
2023-01-17T14:16:29.589Z,21.23
2023-01-17T14:19:04.376Z,21.15
2023-01-17T14:21:53.628Z,20.88
2023-01-17T14:24:27.653Z,20.48
2023-01-17T14:27:31.882Z,20.60
2023-01-17T14:30:07.442Z,22.40
2023-01-17T14:33:12.568Z,25.77
2023-01-17T14:35:55.649Z,19.05
2023-01-17T14:38:48.564Z,18.10
2023-01-17T14:41:36.608Z,18.85
2023-01-17T14:44:31.482Z,18.35
2023-01-17T14:47:23.633Z,16.02
2023-01-17T14:50:15.683Z,19.75
2023-01-17T14:53:19.686Z,20.42
2023-01-17T14:56:07.608Z,18.00
2023-01-17T14:59:01.615Z,17.20
2023-01-17T15:02:05.784Z,17.45
2023-01-17T15:04:41.016Z,18.90
2023-01-17T15:07:27.633Z,18.02
2023-01-17T15:10:00.703Z,24.92
2023-01-17T15:12:52.574Z,27.10
2023-01-17T15:15:48.573Z,26.95
2023-01-17T15:18:37.599Z,30.42
2023-01-17T15:21:23.863Z,27.40
2023-01-17T15:24:21.638Z,35.33
2023-01-17T15:27:08.577Z,40.40
2023-01-17T15:29:42.716Z,40.53
2023-01-17T15:32:37.608Z,44.25
2023-01-17T15:35:18.570Z,48.40
2023-01-17T15:38:07.600Z,52.65
2023-01-17T15:40:56.562Z,53.58
2023-01-17T15:43:51.628Z,52.30
2023-01-17T15:46:52.566Z,76.97
2023-01-17T15:49:30.759Z,61.83
2023-01-17T15:52:22.613Z,55.85
2023-01-17T15:54:58.841Z,48.03
2023-01-17T15:57:46.589Z,45.95
2023-01-17T16:00:20.411Z,41.13
2023-01-17T16:03:07.599Z,53.25
2023-01-17T16:05:46.911Z,52.95
2023-01-17T16:08:48.593Z,56.13
2023-01-17T16:11:28.593Z,65.03
2023-01-17T16:14:15.600Z,85.10
2023-01-17T16:17:03.662Z,87.75
2023-01-17T16:19:50.593Z,120.88
2023-01-17T16:22:30.594Z,99.05
2023-01-17T16:25:32.617Z,95.18
2023-01-17T16:28:19.638Z,96.28
2023-01-17T16:31:00.658Z,105.88
2023-01-17T16:33:54.587Z,126.30
2023-01-17T16:36:41.596Z,110.55
2023-01-17T16:39:15.424Z,114.88
2023-01-17T16:42:09.613Z,101.78
2023-01-17T16:44:43.727Z,93.50
2023-01-17T16:47:31.733Z,77.30
2023-01-17T16:50:04.750Z,78.15
2023-01-17T16:52:51.595Z,69.15
2023-01-17T16:55:26.736Z,69.68
2023-01-17T16:58:13.594Z,72.82
2023-01-17T17:00:47.836Z,94.32
2023-01-17T17:03:34.615Z,140.07
2023-01-17T17:06:15.595Z,183.70
2023-01-17T17:09:09.620Z,109.18
2023-01-17T17:11:56.632Z,110.55
2023-01-17T17:14:29.774Z,93.45
2023-01-17T17:17:16.631Z,95.30
2023-01-17T17:19:49.701Z,244.90
2023-01-17T17:22:36.614Z,168.77
2023-01-17T17:25:11.225Z,162.52
2023-01-17T17:27:57.618Z,141.77
2023-01-17T17:30:31.609Z,128.60
2023-01-17T17:33:18.647Z,150.10
2023-01-17T17:35:51.697Z,155.23
2023-01-17T17:38:41.620Z,146.93
2023-01-17T17:41:22.604Z,155.27
2023-01-17T17:44:17.622Z,132.15
2023-01-17T17:47:04.646Z,119.88
2023-01-17T17:49:37.744Z,116.97
2023-01-17T17:52:24.623Z,116.18
2023-01-17T17:54:57.735Z,119.70
2023-01-17T17:57:44.616Z,126.25
2023-01-17T18:00:25.631Z,138.68
2023-01-17T18:03:19.637Z,134.93
2023-01-17T18:06:18.643Z,152.00
2023-01-17T18:09:05.630Z,148.90
2023-01-17T18:11:46.621Z,131.50
2023-01-17T18:14:40.622Z,130.13
2023-01-17T18:17:27.638Z,95.95
2023-01-17T18:20:00.907Z,78.80
2023-01-17T18:22:48.616Z,90.97
2023-01-17T18:25:21.736Z,136.07
2023-01-17T18:28:08.701Z,137.52
2023-01-17T18:30:41.724Z,123.45
2023-01-17T18:33:28.675Z,133.05
2023-01-17T18:36:04.688Z,100.78
2023-01-17T18:38:53.672Z,89.40
2023-01-17T18:41:41.604Z,70.90
2023-01-17T18:44:36.652Z,72.65
2023-01-17T18:47:23.642Z,62.78
2023-01-17T18:49:56.732Z,62.28
2023-01-17T18:52:45.641Z,67.75
2023-01-17T18:55:18.748Z,65.90
2023-01-17T18:58:05.661Z,60.13
2023-01-17T19:00:45.702Z,50.42
2023-01-17T19:03:40.657Z,49.50
2023-01-17T19:06:33.656Z,48.40
2023-01-17T19:09:13.634Z,58.22
2023-01-17T19:12:07.652Z,51.30
2023-01-17T19:14:54.641Z,52.58
2023-01-17T19:17:27.789Z,35.95
2023-01-17T19:20:15.661Z,38.60
2023-01-17T19:22:48.887Z,54.75
2023-01-17T19:25:35.732Z,51.08
2023-01-17T19:28:09.855Z,52.05
2023-01-17T19:30:56.689Z,60.30
2023-01-17T19:33:29.771Z,60.20
2023-01-17T19:36:23.659Z,45.85
2023-01-17T19:39:06.082Z,43.83
2023-01-17T19:41:59.680Z,51.83
2023-01-17T19:44:46.679Z,39.15
2023-01-17T19:47:19.768Z,36.25
2023-01-17T19:50:06.668Z,31.73
2023-01-17T19:52:39.944Z,31.70
2023-01-17T19:55:31.702Z,31.67
2023-01-17T19:58:04.809Z,37.83
2023-01-17T20:00:51.784Z,37.00
2023-01-17T20:03:24.906Z,41.50
2023-01-17T20:06:12.672Z,38.40
2023-01-17T20:08:46.044Z,42.50
2023-01-17T20:11:33.685Z,40.80
2023-01-17T20:14:06.821Z,46.28
2023-01-17T20:16:55.681Z,45.75
2023-01-17T20:19:28.956Z,44.10
2023-01-17T20:22:15.704Z,47.40
2023-01-17T20:24:48.893Z,43.33
2023-01-17T20:27:35.677Z,37.83
2023-01-17T20:30:19.795Z,37.83
2023-01-17T20:33:07.676Z,40.83
2023-01-17T20:35:40.963Z,39.72
2023-01-17T20:38:27.678Z,36.47
2023-01-17T20:41:01.769Z,50.67
2023-01-17T20:43:49.703Z,56.42
2023-01-17T20:46:31.678Z,85.95
2023-01-17T20:49:31.709Z,53.33
2023-01-17T20:52:25.693Z,43.03
2023-01-17T20:55:14.731Z,33.65
2023-01-17T20:57:47.778Z,32.70
2023-01-17T21:00:27.712Z,28.85
2023-01-17T21:03:07.797Z,39.53
2023-01-17T21:05:47.717Z,60.58
2023-01-17T21:08:27.844Z,50.05
2023-01-17T21:11:08.692Z,43.97
2023-01-17T21:13:48.794Z,39.47
2023-01-17T21:16:34.738Z,30.15
2023-01-17T21:19:21.702Z,24.30
2023-01-17T21:22:02.704Z,25.85
2023-01-17T21:24:56.698Z,25.35
2023-01-17T21:27:50.699Z,23.15
2023-01-17T21:30:44.710Z,23.95
2023-01-17T21:33:39.690Z,24.45
2023-01-17T21:36:35.715Z,23.25
2023-01-17T21:39:31.729Z,25.70
2023-01-17T21:42:18.704Z,27.02
2023-01-17T21:44:51.873Z,26.52
2023-01-17T21:47:38.724Z,26.77
2023-01-17T21:50:12.971Z,23.52
2023-01-17T21:53:01.732Z,22.63
2023-01-17T21:55:59.743Z,25.13
2023-01-17T21:58:54.717Z,23.88
2023-01-17T22:01:41.844Z,24.15
2023-01-17T22:04:14.811Z,21.92
2023-01-17T22:07:01.768Z,25.15
2023-01-17T22:09:34.893Z,24.80
2023-01-17T22:12:21.687Z,26.90
2023-01-17T22:14:54.996Z,25.70
2023-01-17T22:17:44.712Z,25.85
2023-01-17T22:20:19.657Z,26.58
2023-01-17T22:23:07.749Z,25.63
2023-01-17T22:25:48.720Z,27.67
2023-01-17T22:28:44.721Z,28.27
2023-01-17T22:31:33.723Z,26.92
2023-01-17T22:34:08.901Z,27.50
2023-01-17T22:36:55.729Z,26.73
2023-01-17T22:39:35.734Z,26.70
2023-01-17T22:42:22.730Z,33.30
2023-01-17T22:45:02.729Z,26.92
2023-01-17T22:47:56.750Z,28.95
2023-01-17T22:50:43.721Z,29.63
2023-01-17T22:53:37.734Z,26.92
2023-01-17T22:56:33.770Z,26.95
2023-01-17T22:59:20.739Z,28.00
2023-01-17T23:02:00.745Z,25.55
2023-01-17T23:04:55.734Z,24.60
2023-01-17T23:07:52.739Z,25.67
2023-01-17T23:10:44.756Z,23.50
2023-01-17T23:13:31.748Z,23.13
2023-01-17T23:16:29.616Z,21.88
2023-01-17T23:19:28.752Z,21.17
2023-01-17T23:22:23.748Z,20.60
2023-01-17T23:25:26.751Z,22.05
2023-01-17T23:28:26.750Z,20.38
2023-01-17T23:30:59.899Z,23.40
2023-01-17T23:33:48.931Z,25.30
2023-01-17T23:36:21.840Z,25.60
2023-01-17T23:39:08.752Z,24.13
2023-01-17T23:42:06.743Z,25.38
2023-01-17T23:45:00.787Z,22.80
2023-01-17T23:47:47.763Z,23.55
2023-01-17T23:50:20.889Z,22.52
2023-01-17T23:53:13.758Z,21.00
2023-01-17T23:55:48.841Z,19.83
2023-01-17T23:58:35.777Z,20.55
